SKCG/CTG METAR and TAF weather

Enter ICAO airport designator
Station Type Date Time Source
SKCG METAR 2021/04/13 07:00 UTC NOAA

SKCG 130700Z 02006KT 360V060 9999 SCT015 27/25 Q1007 RMK A2974


Station Type Date Time Source
SKCG Decoded METAR 2021/04/13 07:00 UTC NOAA

Cartagena / Rafael Nunez, Colombia (SKCG) 10-27N 075-31W 12M
Apr 13, 2021 - 03:00 AM EDT / 2021.04.13 0700 UTC
Wind: from the NNE (020 degrees) at 7 MPH (6 KT) (direction variable):0
Visibility: greater than 7 mile(s):0
Sky conditions: partly cloudy
Temperature: 80 F (27 C)
Dew Point: 77 F (25 C)
Relative Humidity: 88%
Pressure (altimeter): 29.74 in. Hg (1007 hPa)
ob: SKCG 130700Z 02006KT 360V060 9999 SCT015 27/25 Q1007 RMK A2974
cycle: 7

Station Type Date Time Source
SKCG TAF 2021/04/13 06:40 UTC NOAA

TAF SKCG 130430Z 1306/1406 05005KT 9999 SCT017
BECMG 1315/1317 33010KT
TEMPO 1319/1321 SCT017TCU
BECMG 1322/1324 06005KT TX32/1318Z TN25/1311Z

Example: see airport list